createdAt,value
2023-01-29T00:00:32.797Z,97569.77
2023-01-29T00:11:03.017Z,97564.31
2023-01-29T00:21:11.275Z,97546.06
2023-01-29T00:31:18.442Z,97564.83
2023-01-29T00:41:41.889Z,97575.27
2023-01-29T00:52:10.311Z,97584.58
2023-01-29T01:02:36.259Z,97579.28
2023-01-29T01:12:41.150Z,97567.81
2023-01-29T01:22:45.185Z,97571.08
2023-01-29T01:32:56.458Z,97574.67
2023-01-29T01:43:01.949Z,97584.73
2023-01-29T01:53:11.215Z,97576.84
2023-01-29T02:03:34.040Z,97578.37
2023-01-29T02:13:38.737Z,97588.19
2023-01-29T02:24:10.190Z,97584.02
2023-01-29T02:34:30.223Z,97576.96
2023-01-29T02:45:08.313Z,97544.23
2023-01-29T02:55:53.253Z,97535.30
2023-01-29T03:06:06.805Z,97526.71
2023-01-29T03:16:33.930Z,97531.41
2023-01-29T03:26:56.646Z,97543.06
2023-01-29T03:37:09.288Z,97546.77
2023-01-29T03:47:31.568Z,97553.48
2023-01-29T03:57:42.978Z,97548.09
2023-01-29T04:07:55.413Z,97556.05
2023-01-29T04:17:59.481Z,97550.88
2023-01-29T04:28:54.790Z,97540.64
2023-01-29T04:39:02.027Z,97524.58
2023-01-29T04:49:34.782Z,97529.03
2023-01-29T04:59:53.660Z,97540.85
2023-01-29T05:09:57.605Z,97533.49
2023-01-29T05:20:01.515Z,97507.00
2023-01-29T05:30:06.491Z,97486.30
2023-01-29T05:40:11.027Z,97479.04
2023-01-29T05:50:16.656Z,97481.52
2023-01-29T06:00:21.101Z,97485.81
2023-01-29T06:10:25.326Z,97504.77
2023-01-29T06:20:32.256Z,97521.79
2023-01-29T06:30:39.336Z,97539.83
2023-01-29T06:40:43.306Z,97542.66
2023-01-29T06:50:50.705Z,97553.87
2023-01-29T07:00:54.768Z,97569.18
2023-01-29T07:11:02.561Z,97581.02
2023-01-29T07:21:07.819Z,97590.04
2023-01-29T07:31:13.911Z,97599.27
2023-01-29T07:41:25.649Z,97584.58
2023-01-29T07:51:29.644Z,97582.30
2023-01-29T08:01:33.523Z,97582.63
2023-01-29T08:11:40.737Z,97602.25
2023-01-29T08:21:44.929Z,97629.32
2023-01-29T08:31:49.478Z,97650.30
2023-01-29T08:41:53.510Z,97664.98
2023-01-29T08:51:57.501Z,97682.27
2023-01-29T09:02:01.644Z,97693.27
2023-01-29T09:12:06.531Z,97673.98
2023-01-29T09:22:11.953Z,97671.36
2023-01-29T09:32:23.233Z,97645.70
2023-01-29T09:42:44.813Z,97630.61
2023-01-29T09:53:18.001Z,97633.05
2023-01-29T10:03:55.914Z,97614.51
2023-01-29T10:14:38.180Z,97599.60
2023-01-29T10:24:58.046Z,97580.81
2023-01-29T10:35:25.195Z,97549.43
2023-01-29T10:45:50.000Z,97530.90
2023-01-29T10:55:56.776Z,97525.20
2023-01-29T11:06:10.747Z,97506.16
2023-01-29T11:16:14.849Z,97482.61
2023-01-29T11:26:34.123Z,97446.57
2023-01-29T11:36:41.537Z,97416.55
2023-01-29T11:47:06.824Z,97404.61
2023-01-29T11:57:34.705Z,97393.32
2023-01-29T12:07:43.518Z,97377.77
2023-01-29T12:18:17.770Z,97371.63
2023-01-29T12:28:51.194Z,97356.30
2023-01-29T12:38:56.622Z,97336.85
2023-01-29T12:49:05.910Z,97334.89
2023-01-29T12:59:47.418Z,97346.17
2023-01-29T13:10:18.302Z,97349.85
2023-01-29T13:21:04.755Z,97355.98
2023-01-29T13:31:51.685Z,97351.00
2023-01-29T13:42:53.835Z,97359.47
2023-01-29T13:53:59.071Z,97357.61
2023-01-29T14:04:42.121Z,97340.56
2023-01-29T14:15:08.820Z,97342.86
2023-01-29T14:25:28.847Z,97343.90
2023-01-29T14:36:30.850Z,97350.20
2023-01-29T14:47:12.537Z,97357.59
2023-01-29T14:57:46.372Z,97358.39
2023-01-29T15:08:09.240Z,97334.81
2023-01-29T15:18:42.282Z,97325.02
2023-01-29T15:29:04.517Z,97329.96
2023-01-29T15:39:46.080Z,97316.98
2023-01-29T15:49:52.969Z,97314.30
2023-01-29T16:00:11.935Z,97309.13
2023-01-29T16:10:22.073Z,97303.67
2023-01-29T16:20:52.577Z,97296.14
2023-01-29T16:31:41.086Z,97285.33
2023-01-29T16:42:20.698Z,97294.50
2023-01-29T16:52:32.559Z,97297.80
2023-01-29T17:02:55.531Z,97314.11
2023-01-29T17:13:28.321Z,97322.95
2023-01-29T17:23:36.247Z,97341.32
2023-01-29T17:33:48.622Z,97317.16
2023-01-29T17:44:20.075Z,97300.10
2023-01-29T17:54:28.599Z,97283.25
2023-01-29T18:04:37.273Z,97268.98
2023-01-29T18:15:24.443Z,97274.85
2023-01-29T18:26:21.316Z,97264.17
2023-01-29T18:36:29.581Z,97255.95
2023-01-29T18:46:50.164Z,97260.02
2023-01-29T18:57:13.871Z,97270.50
2023-01-29T19:08:17.487Z,97266.96
2023-01-29T19:18:31.386Z,97265.96
2023-01-29T19:29:17.131Z,97258.30
2023-01-29T19:39:35.319Z,97260.95
2023-01-29T19:49:43.257Z,97243.17
2023-01-29T20:00:19.276Z,97232.16
2023-01-29T20:10:59.150Z,97222.90
2023-01-29T20:21:33.112Z,97215.65
2023-01-29T20:32:09.774Z,97196.68
2023-01-29T20:42:39.079Z,97192.52
2023-01-29T20:52:46.329Z,97180.85
2023-01-29T21:03:38.738Z,97167.44
2023-01-29T21:13:48.337Z,97162.88
2023-01-29T21:23:54.019Z,97160.48
2023-01-29T21:34:02.177Z,97159.70
2023-01-29T21:44:12.627Z,97161.71
2023-01-29T21:54:46.171Z,97152.13
2023-01-29T22:05:16.489Z,97127.39
2023-01-29T22:16:12.272Z,97110.63
2023-01-29T22:27:06.126Z,97081.20
2023-01-29T22:37:10.395Z,97063.28
2023-01-29T22:47:14.350Z,97054.80
2023-01-29T22:57:18.826Z,97038.27
2023-01-29T23:07:36.618Z,97024.17
2023-01-29T23:17:59.618Z,97005.27
2023-01-29T23:28:13.008Z,96988.88
2023-01-29T23:39:21.152Z,96972.90
2023-01-29T23:49:42.545Z,96959.30
2023-01-29T23:59:49.484Z,96943.00
